createdAt,value
2023-01-17T00:00:32.827Z,97049.63
2023-01-17T00:02:59.383Z,97050.63
2023-01-17T00:05:25.905Z,97049.66
2023-01-17T00:07:52.288Z,97053.72
2023-01-17T00:10:20.217Z,97049.22
2023-01-17T00:12:49.442Z,97055.38
2023-01-17T00:15:16.754Z,97052.09
2023-01-17T00:17:43.137Z,97055.47
2023-01-17T00:20:13.431Z,97056.16
2023-01-17T00:22:41.930Z,97047.53
2023-01-17T00:25:11.661Z,97044.84
2023-01-17T00:27:38.070Z,97047.53
2023-01-17T00:30:07.937Z,97056.09
2023-01-17T00:32:34.312Z,97050.50
2023-01-17T00:35:00.652Z,97050.91
2023-01-17T00:37:27.105Z,97054.03
2023-01-17T00:39:53.501Z,97065.28
2023-01-17T00:42:19.857Z,97068.41
2023-01-17T00:44:57.973Z,97063.34
2023-01-17T00:47:25.690Z,97070.97
2023-01-17T00:49:52.113Z,97075.13
2023-01-17T00:52:18.746Z,97075.72
2023-01-17T00:54:45.092Z,97073.25
2023-01-17T00:57:11.475Z,97072.94
2023-01-17T00:59:37.885Z,97075.38
2023-01-17T01:02:04.360Z,97079.69
2023-01-17T01:04:32.070Z,97087.44
2023-01-17T01:07:01.646Z,97088.38
2023-01-17T01:09:28.158Z,97098.97
2023-01-17T01:11:54.550Z,97100.78
2023-01-17T01:14:20.975Z,97100.69
2023-01-17T01:16:47.672Z,97103.19
2023-01-17T01:19:14.045Z,97104.50
2023-01-17T01:21:41.816Z,97098.78
2023-01-17T01:24:08.244Z,97110.94
2023-01-17T01:26:34.606Z,97104.97
2023-01-17T01:29:00.983Z,97105.22
2023-01-17T01:31:27.376Z,97112.16
2023-01-17T01:33:53.818Z,97112.13
2023-01-17T01:36:20.941Z,97115.44
2023-01-17T01:38:48.681Z,97111.84
2023-01-17T01:41:15.138Z,97114.16
2023-01-17T01:43:45.447Z,97118.34
2023-01-17T01:46:16.288Z,97122.69
2023-01-17T01:48:48.792Z,97118.44
2023-01-17T01:51:21.733Z,97128.31
2023-01-17T01:53:52.468Z,97127.28
2023-01-17T01:56:20.724Z,97132.69
2023-01-17T01:58:50.990Z,97130.59
2023-01-17T02:01:18.492Z,97134.75
2023-01-17T02:03:46.312Z,97135.97
2023-01-17T02:06:27.353Z,97143.06
2023-01-17T02:08:58.650Z,97143.13
2023-01-17T02:11:25.403Z,97154.50
2023-01-17T02:13:52.012Z,97156.75
2023-01-17T02:16:33.458Z,97152.72
2023-01-17T02:19:21.055Z,97161.41
2023-01-17T02:22:00.165Z,97160.19
2023-01-17T02:24:47.480Z,97159.81
2023-01-17T02:27:24.220Z,97166.91
2023-01-17T02:30:32.369Z,97168.06
2023-01-17T02:33:06.381Z,97175.97
2023-01-17T02:35:42.668Z,97177.13
2023-01-17T02:38:16.930Z,97179.78
2023-01-17T02:40:47.451Z,97182.09
2023-01-17T02:43:15.656Z,97192.81
2023-01-17T02:45:43.839Z,97196.66
2023-01-17T02:48:14.927Z,97193.13
2023-01-17T02:51:04.285Z,97203.31
2023-01-17T02:53:41.983Z,97193.13
2023-01-17T02:56:22.381Z,97210.34
2023-01-17T02:59:08.486Z,97203.25
2023-01-17T03:01:45.131Z,97212.88
2023-01-17T03:04:18.085Z,97220.25
2023-01-17T03:06:50.660Z,97211.13
2023-01-17T03:09:18.754Z,97221.03
2023-01-17T03:11:45.434Z,97237.22
2023-01-17T03:14:11.786Z,97234.22
2023-01-17T03:16:39.683Z,97246.41
2023-01-17T03:19:06.092Z,97238.63
2023-01-17T03:21:32.453Z,97244.75
2023-01-17T03:23:58.843Z,97252.75
2023-01-17T03:26:25.196Z,97246.31
2023-01-17T03:28:51.600Z,97258.88
2023-01-17T03:31:18.407Z,97261.19
2023-01-17T03:33:46.258Z,97265.47
2023-01-17T03:36:12.624Z,97255.88
2023-01-17T03:38:39.125Z,97275.06
2023-01-17T03:41:06.144Z,97278.50
2023-01-17T03:43:32.606Z,97271.59
2023-01-17T03:46:02.358Z,97269.56
2023-01-17T03:48:28.883Z,97273.56
2023-01-17T03:50:56.639Z,97277.72
2023-01-17T03:53:23.182Z,97277.44
2023-01-17T03:55:49.737Z,97284.91
2023-01-17T03:58:16.145Z,97286.00
2023-01-17T04:00:42.884Z,97286.88
2023-01-17T04:03:09.313Z,97289.81
2023-01-17T04:05:35.710Z,97292.59
2023-01-17T04:08:03.839Z,97287.25
2023-01-17T04:10:30.200Z,97291.50
2023-01-17T04:12:56.561Z,97300.41
2023-01-17T04:15:23.345Z,97297.63
2023-01-17T04:17:49.795Z,97309.00
2023-01-17T04:20:21.662Z,97313.16
2023-01-17T04:22:48.079Z,97322.34
2023-01-17T04:25:15.773Z,97315.75
2023-01-17T04:27:42.111Z,97318.84
2023-01-17T04:30:10.401Z,97330.47
2023-01-17T04:32:36.807Z,97332.09
2023-01-17T04:35:03.275Z,97334.38
2023-01-17T04:37:29.638Z,97339.59
2023-01-17T04:39:56.009Z,97336.03
2023-01-17T04:42:23.745Z,97340.34
2023-01-17T04:44:53.221Z,97345.31
2023-01-17T04:47:19.578Z,97342.44
2023-01-17T04:49:45.944Z,97347.78
2023-01-17T04:52:12.350Z,97360.31
2023-01-17T04:54:38.702Z,97362.78
2023-01-17T04:57:05.044Z,97367.53
2023-01-17T04:59:34.765Z,97372.59
2023-01-17T05:02:01.186Z,97371.34
2023-01-17T05:04:27.637Z,97370.69
2023-01-17T05:06:54.015Z,97377.28
2023-01-17T05:09:20.401Z,97385.88
2023-01-17T05:11:46.762Z,97393.56
2023-01-17T05:14:13.504Z,97401.56
2023-01-17T05:16:41.221Z,97401.50
2023-01-17T05:19:07.711Z,97407.78
2023-01-17T05:21:34.164Z,97403.59
2023-01-17T05:24:00.595Z,97423.97
2023-01-17T05:26:27.004Z,97426.47
2023-01-17T05:28:53.605Z,97440.31
2023-01-17T05:31:20.023Z,97455.00
2023-01-17T05:33:47.749Z,97462.50
2023-01-17T05:36:14.119Z,97463.09
2023-01-17T05:38:40.479Z,97492.31
2023-01-17T05:41:06.868Z,97484.72
2023-01-17T05:43:33.251Z,97494.44
2023-01-17T05:45:59.652Z,97494.16
2023-01-17T05:48:26.066Z,97496.13
2023-01-17T05:50:53.845Z,97500.97
2023-01-17T05:53:20.430Z,97514.75
2023-01-17T05:55:46.824Z,97523.59
2023-01-17T05:58:15.165Z,97532.88
2023-01-17T06:00:41.645Z,97542.78
2023-01-17T06:03:08.413Z,97545.09
2023-01-17T06:05:34.797Z,97551.06
2023-01-17T06:08:03.028Z,97555.75
2023-01-17T06:10:29.565Z,97566.78
2023-01-17T06:13:04.153Z,97554.13
2023-01-17T06:15:30.956Z,97562.28
2023-01-17T06:17:57.363Z,97566.28
2023-01-17T06:20:23.903Z,97569.91
2023-01-17T06:22:50.266Z,97579.41
2023-01-17T06:25:18.029Z,97582.69
2023-01-17T06:27:44.432Z,97594.22
2023-01-17T06:30:11.920Z,97592.06
2023-01-17T06:32:38.321Z,97592.47
2023-01-17T06:35:05.274Z,97600.38
2023-01-17T06:37:31.621Z,97618.63
2023-01-17T06:39:57.976Z,97622.25
2023-01-17T06:42:25.686Z,97623.75
2023-01-17T06:44:58.000Z,97632.44
2023-01-17T06:47:24.390Z,97632.22
2023-01-17T06:49:50.760Z,97639.09
2023-01-17T06:52:17.138Z,97646.28
2023-01-17T06:54:43.526Z,97644.91
2023-01-17T06:57:09.899Z,97651.88
2023-01-17T06:59:37.585Z,97666.09
2023-01-17T07:02:03.946Z,97656.06
2023-01-17T07:04:30.352Z,97674.25
2023-01-17T07:06:56.695Z,97670.13
2023-01-17T07:09:23.050Z,97681.41
2023-01-17T07:11:49.412Z,97682.06
2023-01-17T07:14:15.924Z,97687.81
2023-01-17T07:16:43.631Z,97685.28
2023-01-17T07:19:09.995Z,97693.16
2023-01-17T07:21:36.388Z,97698.72
2023-01-17T07:24:02.739Z,97703.91
2023-01-17T07:26:29.321Z,97714.63
2023-01-17T07:28:55.752Z,97714.53
2023-01-17T07:31:22.168Z,97718.34
2023-01-17T07:33:49.869Z,97722.91
2023-01-17T07:36:16.247Z,97717.88
2023-01-17T07:38:42.732Z,97730.75
2023-01-17T07:41:11.023Z,97725.59
2023-01-17T07:43:37.642Z,97741.59
2023-01-17T07:46:05.894Z,97740.28
2023-01-17T07:48:32.314Z,97738.22
2023-01-17T07:51:00.047Z,97739.97
2023-01-17T07:53:30.743Z,97739.69
2023-01-17T07:56:00.802Z,97734.78
2023-01-17T07:58:27.161Z,97738.66
2023-01-17T08:00:53.609Z,97738.81
2023-01-17T08:03:20.300Z,97749.34
2023-01-17T08:05:53.830Z,97734.94
2023-01-17T08:08:21.568Z,97732.63
2023-01-17T08:10:47.954Z,97737.88
2023-01-17T08:13:14.311Z,97742.00
2023-01-17T08:15:40.785Z,97753.09
2023-01-17T08:18:07.158Z,97752.25
2023-01-17T08:20:33.572Z,97758.84
2023-01-17T08:22:59.966Z,97749.84
2023-01-17T08:25:27.663Z,97765.84
2023-01-17T08:27:57.460Z,97775.25
2023-01-17T08:30:25.215Z,97773.16
2023-01-17T08:32:51.591Z,97772.66
2023-01-17T08:35:17.952Z,97780.66
2023-01-17T08:37:44.348Z,97783.84
2023-01-17T08:40:11.890Z,97785.69
2023-01-17T08:42:39.604Z,97800.53
2023-01-17T08:45:12.543Z,97802.72
2023-01-17T08:47:38.903Z,97811.91
2023-01-17T08:50:05.787Z,97815.16
2023-01-17T08:52:32.709Z,97827.22
2023-01-17T08:54:59.094Z,97833.56
2023-01-17T08:57:25.496Z,97833.28
2023-01-17T08:59:53.223Z,97833.63
2023-01-17T09:02:19.923Z,97848.38
2023-01-17T09:04:47.461Z,97852.53
2023-01-17T09:07:14.770Z,97851.31
2023-01-17T09:09:41.153Z,97854.75
2023-01-17T09:12:07.543Z,97857.81
2023-01-17T09:14:34.292Z,97859.94
2023-01-17T09:17:02.015Z,97863.81
2023-01-17T09:19:28.711Z,97850.00
2023-01-17T09:21:55.101Z,97855.50
2023-01-17T09:24:21.506Z,97851.75
2023-01-17T09:26:47.923Z,97852.84
2023-01-17T09:29:16.269Z,97855.28
2023-01-17T09:31:42.626Z,97846.75
2023-01-17T09:34:10.377Z,97850.28
2023-01-17T09:36:36.758Z,97847.84
2023-01-17T09:39:04.264Z,97855.44
2023-01-17T09:41:32.925Z,97858.72
2023-01-17T09:44:05.429Z,97862.41
2023-01-17T09:46:37.297Z,97864.97
2023-01-17T09:49:09.245Z,97868.22
2023-01-17T09:51:37.205Z,97876.91
2023-01-17T09:54:04.684Z,97883.84
2023-01-17T09:56:35.121Z,97887.03
2023-01-17T09:59:20.099Z,97890.09
2023-01-17T10:01:57.027Z,97886.72
2023-01-17T10:04:42.159Z,97899.59
2023-01-17T10:07:22.287Z,97888.28
2023-01-17T10:10:05.093Z,97890.91
2023-01-17T10:12:39.634Z,97895.75
2023-01-17T10:15:41.838Z,97887.13
2023-01-17T10:18:29.825Z,97891.38
2023-01-17T10:21:04.297Z,97898.25
2023-01-17T10:24:00.914Z,97908.81
2023-01-17T10:26:27.560Z,97904.69
2023-01-17T10:28:59.292Z,97902.13
2023-01-17T10:31:27.422Z,97904.16
2023-01-17T10:33:56.210Z,97908.94
2023-01-17T10:36:25.292Z,97907.03
2023-01-17T10:38:54.122Z,97913.06
2023-01-17T10:41:28.180Z,97913.97
2023-01-17T10:44:04.135Z,97915.94
2023-01-17T10:46:36.080Z,97925.50
2023-01-17T10:49:02.991Z,97918.63
2023-01-17T10:51:56.669Z,97919.94
2023-01-17T10:54:38.753Z,97919.16
2023-01-17T10:57:14.290Z,97912.41
2023-01-17T10:59:40.681Z,97921.19
2023-01-17T11:02:17.650Z,97915.72
2023-01-17T11:04:50.228Z,97923.13
2023-01-17T11:07:18.664Z,97922.41
2023-01-17T11:09:46.502Z,97921.59
2023-01-17T11:12:20.465Z,97921.94
2023-01-17T11:14:59.629Z,97923.56
2023-01-17T11:17:26.858Z,97932.81
2023-01-17T11:19:53.730Z,97925.72
2023-01-17T11:22:20.930Z,97918.81
2023-01-17T11:24:50.951Z,97929.69
2023-01-17T11:27:26.727Z,97917.47
2023-01-17T11:30:05.783Z,97926.28
2023-01-17T11:32:33.783Z,97934.53
2023-01-17T11:35:13.826Z,97932.88
2023-01-17T11:37:48.489Z,97934.47
2023-01-17T11:40:21.392Z,97939.94
2023-01-17T11:43:00.637Z,97937.47
2023-01-17T11:45:28.873Z,97933.09
2023-01-17T11:48:11.579Z,97931.81
2023-01-17T11:50:40.415Z,97935.59
2023-01-17T11:53:14.548Z,97926.50
2023-01-17T11:55:52.508Z,97920.44
2023-01-17T11:58:20.919Z,97928.06
2023-01-17T12:00:54.675Z,97937.13
2023-01-17T12:03:27.763Z,97932.19
2023-01-17T12:06:03.848Z,97928.69
2023-01-17T12:08:46.891Z,97931.69
2023-01-17T12:11:18.597Z,97926.47
2023-01-17T12:13:57.555Z,97931.56
2023-01-17T12:16:39.207Z,97927.19
2023-01-17T12:19:20.302Z,97928.31
2023-01-17T12:21:59.589Z,97934.84
2023-01-17T12:24:51.234Z,97929.75
2023-01-17T12:27:25.573Z,97944.03
2023-01-17T12:30:08.128Z,97934.38
2023-01-17T12:32:48.677Z,97939.94
2023-01-17T12:35:19.913Z,97943.03
2023-01-17T12:38:03.709Z,97950.00
2023-01-17T12:40:36.799Z,97945.31
2023-01-17T12:43:12.237Z,97944.94
2023-01-17T12:45:43.583Z,97950.34
2023-01-17T12:48:11.870Z,97952.19
2023-01-17T12:50:43.051Z,97951.31
2023-01-17T12:53:18.776Z,97946.22
2023-01-17T12:55:51.597Z,97949.81
2023-01-17T12:58:21.250Z,97949.25
2023-01-17T13:00:54.808Z,97945.78
2023-01-17T13:03:29.565Z,97952.59
2023-01-17T13:05:57.743Z,97953.91
2023-01-17T13:08:30.143Z,97943.75
2023-01-17T13:11:02.341Z,97947.94
2023-01-17T13:13:30.392Z,97955.94
2023-01-17T13:16:04.930Z,97957.22
2023-01-17T13:18:31.370Z,97957.72
2023-01-17T13:21:11.811Z,97967.53
2023-01-17T13:24:04.439Z,97958.28
2023-01-17T13:26:44.033Z,97969.81
2023-01-17T13:29:20.354Z,97970.63
2023-01-17T13:31:51.518Z,97982.63
2023-01-17T13:34:47.737Z,97979.59
2023-01-17T13:37:38.122Z,97983.28
2023-01-17T13:40:24.690Z,97983.91
2023-01-17T13:42:54.601Z,97986.53
2023-01-17T13:45:23.944Z,97985.28
2023-01-17T13:47:51.734Z,97985.00
2023-01-17T13:50:47.769Z,97990.66
2023-01-17T13:53:54.139Z,98002.63
2023-01-17T13:56:32.477Z,98006.97
2023-01-17T13:59:37.332Z,98007.53
2023-01-17T14:02:36.057Z,98006.00
2023-01-17T14:05:08.984Z,98013.88
2023-01-17T14:07:44.005Z,98008.66
2023-01-17T14:10:36.325Z,98013.03
2023-01-17T14:13:04.333Z,98019.41
2023-01-17T14:15:33.653Z,98018.25
2023-01-17T14:18:02.366Z,98017.78
2023-01-17T14:20:50.664Z,98019.53
2023-01-17T14:23:25.202Z,98018.47
2023-01-17T14:25:52.569Z,98014.03
2023-01-17T14:28:23.505Z,98022.06
2023-01-17T14:30:52.377Z,98014.25
2023-01-17T14:33:26.980Z,98018.38
2023-01-17T14:35:56.585Z,98020.44
2023-01-17T14:38:24.775Z,98022.09
2023-01-17T14:40:54.103Z,98019.78
2023-01-17T14:43:22.668Z,98026.38
2023-01-17T14:45:56.197Z,98026.84
2023-01-17T14:48:24.459Z,98023.28
2023-01-17T14:50:52.330Z,98028.84
2023-01-17T14:53:20.795Z,98028.94
2023-01-17T14:55:54.772Z,98035.09
2023-01-17T14:58:23.780Z,98036.00
2023-01-17T15:00:52.237Z,98033.50
2023-01-17T15:03:19.041Z,98036.78
2023-01-17T15:05:50.780Z,98035.81
2023-01-17T15:08:19.798Z,98030.06
2023-01-17T15:10:49.960Z,98032.88
2023-01-17T15:13:22.554Z,98029.25
2023-01-17T15:16:03.158Z,98036.91
2023-01-17T15:18:33.331Z,98031.56
2023-01-17T15:21:04.563Z,98035.56
2023-01-17T15:23:34.959Z,98035.03
2023-01-17T15:26:04.594Z,98040.81
2023-01-17T15:28:32.544Z,98041.78
2023-01-17T15:31:08.981Z,98048.41
2023-01-17T15:33:39.062Z,98044.28
2023-01-17T15:36:21.960Z,98046.03
2023-01-17T15:38:54.039Z,98044.28
2023-01-17T15:41:24.866Z,98041.47
2023-01-17T15:43:51.271Z,98047.94
2023-01-17T15:46:28.775Z,98042.78
2023-01-17T15:49:06.546Z,98041.84
2023-01-17T15:51:37.305Z,98044.25
2023-01-17T15:54:33.269Z,98051.06
2023-01-17T15:57:06.380Z,98052.34
2023-01-17T15:59:42.962Z,98056.88
2023-01-17T16:02:26.504Z,98058.63
2023-01-17T16:04:52.972Z,98060.56
2023-01-17T16:07:22.439Z,98062.53
2023-01-17T16:09:49.900Z,98071.34
2023-01-17T16:12:16.363Z,98073.97
2023-01-17T16:14:59.620Z,98089.41
2023-01-17T16:17:29.719Z,98083.31
2023-01-17T16:19:56.765Z,98090.41
2023-01-17T16:22:24.466Z,98086.06
2023-01-17T16:24:50.938Z,98097.88
2023-01-17T16:27:17.282Z,98097.97
2023-01-17T16:29:43.727Z,98106.09
2023-01-17T16:32:10.133Z,98109.25
2023-01-17T16:34:36.484Z,98106.44
2023-01-17T16:37:03.431Z,98100.72
2023-01-17T16:39:31.120Z,98107.34
2023-01-17T16:42:00.240Z,98098.03
2023-01-17T16:44:26.603Z,98102.81
2023-01-17T16:46:52.980Z,98100.09
2023-01-17T16:49:19.344Z,98105.53
2023-01-17T16:51:46.363Z,98103.34
2023-01-17T16:54:12.740Z,98101.50
2023-01-17T16:56:40.486Z,98114.97
2023-01-17T16:59:06.896Z,98115.09
2023-01-17T17:01:33.436Z,98115.25
2023-01-17T17:03:59.857Z,98116.72
2023-01-17T17:06:26.208Z,98124.41
2023-01-17T17:08:52.569Z,98116.09
2023-01-17T17:11:20.378Z,98113.97
2023-01-17T17:13:49.837Z,98122.88
2023-01-17T17:16:17.894Z,98120.44
2023-01-17T17:18:45.980Z,98127.22
2023-01-17T17:21:12.594Z,98119.00
2023-01-17T17:23:39.030Z,98127.88
2023-01-17T17:26:05.984Z,98124.63
2023-01-17T17:28:32.554Z,98123.84
2023-01-17T17:31:05.151Z,98122.38
2023-01-17T17:33:31.779Z,98122.22
2023-01-17T17:36:02.081Z,98125.94
2023-01-17T17:38:28.484Z,98127.47
2023-01-17T17:40:54.832Z,98123.66
2023-01-17T17:43:21.182Z,98125.13
2023-01-17T17:45:47.707Z,98123.63
2023-01-17T17:48:15.404Z,98122.88
2023-01-17T17:50:41.761Z,98123.19
2023-01-17T17:53:08.158Z,98127.53
2023-01-17T17:55:36.343Z,98136.72
2023-01-17T17:58:02.692Z,98135.94
2023-01-17T18:00:30.348Z,98145.75
2023-01-17T18:02:56.728Z,98148.97
2023-01-17T18:05:24.461Z,98146.75
2023-01-17T18:07:51.206Z,98144.75
2023-01-17T18:10:17.624Z,98153.34
2023-01-17T18:12:43.977Z,98152.06
2023-01-17T18:15:10.770Z,98154.25
2023-01-17T18:17:37.171Z,98154.72
2023-01-17T18:20:05.546Z,98162.47
2023-01-17T18:22:35.247Z,98151.06
2023-01-17T18:25:01.685Z,98166.44
2023-01-17T18:27:28.057Z,98163.22
2023-01-17T18:29:54.471Z,98168.66
2023-01-17T18:32:20.836Z,98156.44
2023-01-17T18:34:47.177Z,98164.28
2023-01-17T18:37:13.552Z,98158.59
2023-01-17T18:39:42.302Z,98156.56
2023-01-17T18:42:10.598Z,98165.72
2023-01-17T18:44:37.118Z,98161.88
2023-01-17T18:47:03.714Z,98166.97
2023-01-17T18:49:30.522Z,98158.94
2023-01-17T18:51:56.931Z,98174.34
2023-01-17T18:54:23.297Z,98175.94
2023-01-17T18:56:50.995Z,98165.75
2023-01-17T18:59:17.595Z,98178.84
2023-01-17T19:01:44.282Z,98187.59
2023-01-17T19:04:12.603Z,98181.81
2023-01-17T19:06:40.860Z,98193.88
2023-01-17T19:09:08.315Z,98205.50
2023-01-17T19:11:35.815Z,98204.69
2023-01-17T19:14:04.375Z,98199.34
2023-01-17T19:16:33.334Z,98197.63
2023-01-17T19:19:02.422Z,98192.78
2023-01-17T19:21:29.982Z,98198.00
2023-01-17T19:23:57.299Z,98203.00
2023-01-17T19:26:25.164Z,98206.28
2023-01-17T19:28:52.263Z,98208.53
2023-01-17T19:31:22.161Z,98202.66
2023-01-17T19:33:50.586Z,98207.31
2023-01-17T19:36:19.565Z,98206.41
2023-01-17T19:38:58.617Z,98214.63
2023-01-17T19:41:29.723Z,98209.88
2023-01-17T19:43:57.034Z,98207.69
2023-01-17T19:46:25.296Z,98209.19
2023-01-17T19:48:52.028Z,98215.47
2023-01-17T19:51:18.481Z,98222.75
2023-01-17T19:53:44.876Z,98222.03
2023-01-17T19:56:13.476Z,98217.41
2023-01-17T19:58:40.526Z,98234.16
2023-01-17T20:01:09.767Z,98224.81
2023-01-17T20:03:38.268Z,98235.31
2023-01-17T20:06:05.691Z,98233.78
2023-01-17T20:08:32.719Z,98237.72
2023-01-17T20:11:02.997Z,98237.63
2023-01-17T20:13:29.659Z,98249.16
2023-01-17T20:15:56.043Z,98249.56
2023-01-17T20:18:22.656Z,98249.72
2023-01-17T20:20:56.866Z,98248.72
2023-01-17T20:23:23.653Z,98244.25
2023-01-17T20:25:53.816Z,98248.94
2023-01-17T20:28:20.194Z,98250.75
2023-01-17T20:30:46.805Z,98248.31
2023-01-17T20:33:13.145Z,98260.03
2023-01-17T20:35:39.508Z,98252.69
2023-01-17T20:38:07.188Z,98260.22
2023-01-17T20:40:33.541Z,98254.03
2023-01-17T20:42:59.880Z,98257.44
2023-01-17T20:45:26.605Z,98257.59
2023-01-17T20:47:52.966Z,98264.28
2023-01-17T20:50:19.358Z,98270.38
2023-01-17T20:52:45.873Z,98263.72
2023-01-17T20:55:13.903Z,98275.91
2023-01-17T20:57:40.440Z,98267.88
2023-01-17T21:00:08.430Z,98257.59
2023-01-17T21:02:34.844Z,98264.06
2023-01-17T21:05:01.235Z,98264.63
2023-01-17T21:07:27.649Z,98267.75
2023-01-17T21:09:54.216Z,98273.34
2023-01-17T21:12:21.918Z,98273.25
2023-01-17T21:14:48.452Z,98271.41
2023-01-17T21:17:15.378Z,98264.13
2023-01-17T21:19:41.939Z,98265.38
2023-01-17T21:22:08.656Z,98267.19
2023-01-17T21:24:35.038Z,98270.47
2023-01-17T21:27:01.407Z,98272.00
2023-01-17T21:29:29.141Z,98268.94
2023-01-17T21:31:55.648Z,98269.75
2023-01-17T21:34:24.040Z,98273.81
2023-01-17T21:36:51.747Z,98279.47
2023-01-17T21:39:18.793Z,98279.16
2023-01-17T21:41:47.375Z,98275.66
2023-01-17T21:44:16.231Z,98272.63
2023-01-17T21:46:43.897Z,98288.84
2023-01-17T21:49:10.862Z,98286.59
2023-01-17T21:51:37.906Z,98289.00
2023-01-17T21:54:04.399Z,98298.09
2023-01-17T21:56:30.761Z,98293.63
2023-01-17T21:58:57.938Z,98294.53
2023-01-17T22:01:26.315Z,98300.44
2023-01-17T22:03:55.958Z,98300.00
2023-01-17T22:06:24.934Z,98314.81
2023-01-17T22:08:51.568Z,98312.50
2023-01-17T22:11:20.142Z,98324.16
2023-01-17T22:13:46.845Z,98330.38
2023-01-17T22:16:15.398Z,98329.72
2023-01-17T22:18:43.569Z,98328.09
2023-01-17T22:21:14.757Z,98332.97
2023-01-17T22:23:45.499Z,98333.84
2023-01-17T22:26:11.908Z,98337.78
2023-01-17T22:28:39.343Z,98346.63
2023-01-17T22:31:07.723Z,98347.97
2023-01-17T22:33:34.212Z,98346.72
2023-01-17T22:36:00.574Z,98347.81
2023-01-17T22:38:28.229Z,98349.66
2023-01-17T22:41:00.841Z,98350.84
2023-01-17T22:43:27.232Z,98348.03
2023-01-17T22:45:58.511Z,98365.38
2023-01-17T22:48:25.000Z,98360.91
2023-01-17T22:50:51.363Z,98367.63
2023-01-17T22:53:17.697Z,98361.06
2023-01-17T22:55:45.411Z,98366.09
2023-01-17T22:58:11.791Z,98374.63
2023-01-17T23:00:38.155Z,98366.44
2023-01-17T23:03:04.677Z,98373.66
2023-01-17T23:05:31.055Z,98364.22
2023-01-17T23:07:57.409Z,98362.75
2023-01-17T23:10:23.764Z,98361.34
2023-01-17T23:12:51.425Z,98363.88
2023-01-17T23:15:18.069Z,98356.50
2023-01-17T23:17:44.645Z,98363.84
2023-01-17T23:20:11.592Z,98369.34
2023-01-17T23:22:38.290Z,98368.47
2023-01-17T23:25:07.321Z,98378.97
2023-01-17T23:27:35.324Z,98374.91
2023-01-17T23:30:05.650Z,98382.09
2023-01-17T23:32:32.210Z,98384.00
2023-01-17T23:34:58.655Z,98379.00
2023-01-17T23:37:29.627Z,98381.72
2023-01-17T23:39:55.987Z,98374.94
2023-01-17T23:42:22.442Z,98374.63
2023-01-17T23:44:53.520Z,98384.91
2023-01-17T23:47:21.453Z,98378.91
2023-01-17T23:49:47.859Z,98384.00
2023-01-17T23:52:14.441Z,98379.72
2023-01-17T23:54:40.851Z,98385.44
2023-01-17T23:57:07.259Z,98367.91
2023-01-17T23:59:33.799Z,98367.41
